sensor_id;sensor_type;location;lat;lon;timestamp;P1;durP1;ratioP1;P2;durP2;ratioP2
60336;SDS011;46978;50.288;28.624;2023-12-22T00:00:19;12.01;;;6.72;;
60336;SDS011;46978;50.288;28.624;2023-12-22T00:01:21;9.71;;;6.35;;
60336;SDS011;46978;50.288;28.624;2023-12-22T00:02:22;11.91;;;6.43;;
60336;SDS011;46978;50.288;28.624;2023-12-22T00:03:24;11.09;;;6.13;;
60336;SDS011;46978;50.288;28.624;2023-12-22T00:04:26;11.79;;;6.12;;
60336;SDS011;46978;50.288;28.624;2023-12-22T00:05:28;10.23;;;6.13;;
60336;SDS011;46978;50.288;28.624;2023-12-22T00:06:31;10.40;;;5.95;;
60336;SDS011;46978;50.288;28.624;2023-12-22T00:07:33;9.34;;;5.93;;
60336;SDS011;46978;50.288;28.624;2023-12-22T00:08:35;11.76;;;6.60;;
60336;SDS011;46978;50.288;28.624;2023-12-22T00:09:37;9.56;;;5.85;;
60336;SDS011;46978;50.288;28.624;2023-12-22T00:10:41;11.00;;;6.10;;
60336;SDS011;46978;50.288;28.624;2023-12-22T00:11:43;9.69;;;5.93;;
60336;SDS011;46978;50.288;28.624;2023-12-22T00:12:44;11.12;;;5.89;;
60336;SDS011;46978;50.288;28.624;2023-12-22T00:13:46;9.63;;;5.68;;
60336;SDS011;46978;50.288;28.624;2023-12-22T00:14:48;9.29;;;5.73;;
60336;SDS011;46978;50.288;28.624;2023-12-22T00:15:50;10.49;;;5.68;;
60336;SDS011;46978;50.288;28.624;2023-12-22T00:16:52;9.58;;;5.81;;
60336;SDS011;46978;50.288;28.624;2023-12-22T00:17:54;12.64;;;5.87;;
60336;SDS011;46978;50.288;28.624;2023-12-22T00:18:55;9.24;;;5.53;;
60336;SDS011;46978;50.288;28.624;2023-12-22T00:19:57;10.71;;;5.41;;
60336;SDS011;46978;50.288;28.624;2023-12-22T00:21:00;11.61;;;5.91;;
60336;SDS011;46978;50.288;28.624;2023-12-22T00:22:01;9.76;;;5.75;;
60336;SDS011;46978;50.288;28.624;2023-12-22T00:23:03;9.85;;;5.70;;
60336;SDS011;46978;50.288;28.624;2023-12-22T00:24:05;12.13;;;6.83;;
60336;SDS011;46978;50.288;28.624;2023-12-22T00:25:07;11.09;;;5.95;;
60336;SDS011;46978;50.288;28.624;2023-12-22T00:26:10;11.59;;;5.86;;
60336;SDS011;46978;50.288;28.624;2023-12-22T00:27:12;13.07;;;6.05;;
60336;SDS011;46978;50.288;28.624;2023-12-22T00:28:14;10.27;;;6.18;;
60336;SDS011;46978;50.288;28.624;2023-12-22T00:29:16;9.33;;;5.53;;
60336;SDS011;46978;50.288;28.624;2023-12-22T00:30:19;8.31;;;5.41;;
60336;SDS011;46978;50.288;28.624;2023-12-22T00:31:21;11.11;;;5.78;;
60336;SDS011;46978;50.288;28.624;2023-12-22T00:32:23;10.56;;;5.98;;
60336;SDS011;46978;50.288;28.624;2023-12-22T00:33:25;9.71;;;5.63;;
60336;SDS011;46978;50.288;28.624;2023-12-22T00:34:27;9.29;;;5.50;;
60336;SDS011;46978;50.288;28.624;2023-12-22T00:35:29;10.31;;;5.93;;
60336;SDS011;46978;50.288;28.624;2023-12-22T00:36:32;9.91;;;5.87;;
60336;SDS011;46978;50.288;28.624;2023-12-22T00:37:34;11.31;;;6.01;;
60336;SDS011;46978;50.288;28.624;2023-12-22T00:38:36;10.67;;;5.59;;
60336;SDS011;46978;50.288;28.624;2023-12-22T00:39:38;9.25;;;5.79;;
60336;SDS011;46978;50.288;28.624;2023-12-22T00:40:40;10.47;;;5.69;;
60336;SDS011;46978;50.288;28.624;2023-12-22T00:41:41;9.53;;;5.45;;
60336;SDS011;46978;50.288;28.624;2023-12-22T00:42:43;10.12;;;5.92;;
60336;SDS011;46978;50.288;28.624;2023-12-22T00:43:45;10.08;;;5.62;;
60336;SDS011;46978;50.288;28.624;2023-12-22T00:44:47;9.98;;;5.83;;
60336;SDS011;46978;50.288;28.624;2023-12-22T00:45:49;8.99;;;5.44;;
60336;SDS011;46978;50.288;28.624;2023-12-22T00:46:51;11.12;;;5.58;;
60336;SDS011;46978;50.288;28.624;2023-12-22T00:47:53;7.69;;;5.37;;
60336;SDS011;46978;50.288;28.624;2023-12-22T00:48:55;9.24;;;5.33;;
60336;SDS011;46978;50.288;28.624;2023-12-22T00:49:57;8.58;;;5.15;;
60336;SDS011;46978;50.288;28.624;2023-12-22T00:50:59;9.59;;;5.69;;
60336;SDS011;46978;50.288;28.624;2023-12-22T00:52:01;7.83;;;5.12;;
60336;SDS011;46978;50.288;28.624;2023-12-22T00:53:03;9.63;;;5.34;;
60336;SDS011;46978;50.288;28.624;2023-12-22T00:54:05;9.75;;;5.41;;
60336;SDS011;46978;50.288;28.624;2023-12-22T00:55:06;11.45;;;5.59;;
60336;SDS011;46978;50.288;28.624;2023-12-22T00:56:09;10.05;;;5.75;;
60336;SDS011;46978;50.288;28.624;2023-12-22T00:57:11;9.34;;;5.45;;
60336;SDS011;46978;50.288;28.624;2023-12-22T00:58:13;9.27;;;5.35;;
60336;SDS011;46978;50.288;28.624;2023-12-22T00:59:14;10.24;;;5.75;;
60336;SDS011;46978;50.288;28.624;2023-12-22T01:00:18;8.58;;;5.22;;
60336;SDS011;46978;50.288;28.624;2023-12-22T01:01:20;9.42;;;5.46;;
60336;SDS011;46978;50.288;28.624;2023-12-22T01:02:22;11.73;;;5.97;;
60336;SDS011;46978;50.288;28.624;2023-12-22T01:03:24;7.79;;;5.09;;
60336;SDS011;46978;50.288;28.624;2023-12-22T01:04:25;8.88;;;5.46;;
60336;SDS011;46978;50.288;28.624;2023-12-22T01:05:27;9.61;;;5.35;;
60336;SDS011;46978;50.288;28.624;2023-12-22T01:06:30;9.22;;;5.64;;
60336;SDS011;46978;50.288;28.624;2023-12-22T01:07:32;9.62;;;5.57;;
60336;SDS011;46978;50.288;28.624;2023-12-22T01:08:34;8.77;;;4.84;;
60336;SDS011;46978;50.288;28.624;2023-12-22T01:09:40;8.62;;;5.31;;
60336;SDS011;46978;50.288;28.624;2023-12-22T01:10:42;9.00;;;5.59;;
60336;SDS011;46978;50.288;28.624;2023-12-22T01:11:44;8.49;;;5.27;;
60336;SDS011;46978;50.288;28.624;2023-12-22T01:12:46;8.92;;;4.93;;
60336;SDS011;46978;50.288;28.624;2023-12-22T01:13:48;9.52;;;5.51;;
60336;SDS011;46978;50.288;28.624;2023-12-22T01:14:50;8.83;;;5.23;;
60336;SDS011;46978;50.288;28.624;2023-12-22T01:15:51;9.11;;;5.45;;
60336;SDS011;46978;50.288;28.624;2023-12-22T01:16:55;9.69;;;5.43;;
60336;SDS011;46978;50.288;28.624;2023-12-22T01:17:57;8.59;;;5.46;;
60336;SDS011;46978;50.288;28.624;2023-12-22T01:18:59;8.81;;;5.83;;
60336;SDS011;46978;50.288;28.624;2023-12-22T01:20:00;8.65;;;4.96;;
60336;SDS011;46978;50.288;28.624;2023-12-22T01:21:02;9.50;;;5.39;;
60336;SDS011;46978;50.288;28.624;2023-12-22T01:22:04;9.41;;;5.30;;
60336;SDS011;46978;50.288;28.624;2023-12-22T01:23:06;9.02;;;4.87;;
60336;SDS011;46978;50.288;28.624;2023-12-22T01:24:08;8.61;;;4.94;;
60336;SDS011;46978;50.288;28.624;2023-12-22T01:25:10;9.13;;;5.19;;
60336;SDS011;46978;50.288;28.624;2023-12-22T01:26:13;8.25;;;5.00;;
60336;SDS011;46978;50.288;28.624;2023-12-22T01:27:15;8.31;;;5.08;;
60336;SDS011;46978;50.288;28.624;2023-12-22T01:28:17;10.12;;;5.52;;
60336;SDS011;46978;50.288;28.624;2023-12-22T01:29:19;8.60;;;4.84;;
60336;SDS011;46978;50.288;28.624;2023-12-22T01:30:22;7.54;;;4.98;;
60336;SDS011;46978;50.288;28.624;2023-12-22T01:31:24;9.70;;;5.01;;
60336;SDS011;46978;50.288;28.624;2023-12-22T01:32:25;8.45;;;4.77;;
60336;SDS011;46978;50.288;28.624;2023-12-22T01:33:27;10.93;;;5.15;;
60336;SDS011;46978;50.288;28.624;2023-12-22T01:34:29;8.51;;;5.03;;
60336;SDS011;46978;50.288;28.624;2023-12-22T01:35:31;8.25;;;4.55;;
60336;SDS011;46978;50.288;28.624;2023-12-22T01:36:34;8.95;;;5.06;;
60336;SDS011;46978;50.288;28.624;2023-12-22T01:37:40;8.06;;;5.17;;
60336;SDS011;46978;50.288;28.624;2023-12-22T01:38:39;7.66;;;4.96;;
60336;SDS011;46978;50.288;28.624;2023-12-22T01:39:41;8.91;;;5.01;;
60336;SDS011;46978;50.288;28.624;2023-12-22T01:40:43;7.62;;;4.75;;
60336;SDS011;46978;50.288;28.624;2023-12-22T01:41:45;9.61;;;4.90;;
60336;SDS011;46978;50.288;28.624;2023-12-22T01:42:47;9.69;;;5.12;;
60336;SDS011;46978;50.288;28.624;2023-12-22T01:43:49;8.74;;;4.79;;
60336;SDS011;46978;50.288;28.624;2023-12-22T01:44:50;8.98;;;4.96;;
60336;SDS011;46978;50.288;28.624;2023-12-22T01:45:55;8.09;;;4.56;;
60336;SDS011;46978;50.288;28.624;2023-12-22T01:47:02;7.75;;;4.53;;
60336;SDS011;46978;50.288;28.624;2023-12-22T01:48:05;8.99;;;4.92;;
60336;SDS011;46978;50.288;28.624;2023-12-22T01:49:07;8.47;;;5.15;;
60336;SDS011;46978;50.288;28.624;2023-12-22T01:50:11;8.01;;;4.85;;
60336;SDS011;46978;50.288;28.624;2023-12-22T01:51:15;7.55;;;4.55;;
60336;SDS011;46978;50.288;28.624;2023-12-22T01:52:17;9.71;;;4.80;;
60336;SDS011;46978;50.288;28.624;2023-12-22T01:53:20;8.43;;;4.79;;
60336;SDS011;46978;50.288;28.624;2023-12-22T01:54:23;8.04;;;4.67;;
60336;SDS011;46978;50.288;28.624;2023-12-22T01:55:26;8.37;;;4.51;;
60336;SDS011;46978;50.288;28.624;2023-12-22T01:56:29;8.13;;;4.34;;
60336;SDS011;46978;50.288;28.624;2023-12-22T01:57:30;8.57;;;4.76;;
60336;SDS011;46978;50.288;28.624;2023-12-22T01:58:32;8.26;;;4.08;;
60336;SDS011;46978;50.288;28.624;2023-12-22T01:59:37;7.76;;;4.25;;
60336;SDS011;46978;50.288;28.624;2023-12-22T02:00:41;8.44;;;4.78;;
60336;SDS011;46978;50.288;28.624;2023-12-22T02:01:43;9.59;;;4.65;;
60336;SDS011;46978;50.288;28.624;2023-12-22T02:02:45;7.94;;;4.39;;
60336;SDS011;46978;50.288;28.624;2023-12-22T02:03:51;7.62;;;4.05;;
60336;SDS011;46978;50.288;28.624;2023-12-22T02:04:51;7.58;;;4.02;;
60336;SDS011;46978;50.288;28.624;2023-12-22T02:05:54;8.75;;;4.55;;
60336;SDS011;46978;50.288;28.624;2023-12-22T02:06:58;6.63;;;4.61;;
60336;SDS011;46978;50.288;28.624;2023-12-22T02:08:02;7.23;;;4.27;;
60336;SDS011;46978;50.288;28.624;2023-12-22T02:09:04;7.45;;;3.85;;
60336;SDS011;46978;50.288;28.624;2023-12-22T02:10:07;7.31;;;3.76;;
60336;SDS011;46978;50.288;28.624;2023-12-22T02:11:10;7.43;;;3.84;;
60336;SDS011;46978;50.288;28.624;2023-12-22T02:12:11;7.20;;;4.04;;
60336;SDS011;46978;50.288;28.624;2023-12-22T02:13:13;7.26;;;4.28;;
60336;SDS011;46978;50.288;28.624;2023-12-22T02:14:15;7.26;;;4.25;;
60336;SDS011;46978;50.288;28.624;2023-12-22T02:15:17;6.63;;;4.02;;
60336;SDS011;46978;50.288;28.624;2023-12-22T02:16:39;8.41;;;4.05;;
60336;SDS011;46978;50.288;28.624;2023-12-22T02:17:44;6.67;;;4.15;;
60336;SDS011;46978;50.288;28.624;2023-12-22T02:18:48;6.49;;;3.79;;
60336;SDS011;46978;50.288;28.624;2023-12-22T02:19:52;6.50;;;4.11;;
60336;SDS011;46978;50.288;28.624;2023-12-22T02:20:55;6.97;;;3.81;;
60336;SDS011;46978;50.288;28.624;2023-12-22T02:22:01;7.77;;;3.97;;
60336;SDS011;46978;50.288;28.624;2023-12-22T02:23:05;6.43;;;4.03;;
60336;SDS011;46978;50.288;28.624;2023-12-22T02:24:07;7.49;;;4.22;;
60336;SDS011;46978;50.288;28.624;2023-12-22T02:25:08;7.66;;;4.07;;
60336;SDS011;46978;50.288;28.624;2023-12-22T02:26:22;7.11;;;3.84;;
60336;SDS011;46978;50.288;28.624;2023-12-22T02:27:22;6.66;;;3.94;;
60336;SDS011;46978;50.288;28.624;2023-12-22T02:28:38;6.76;;;3.94;;
60336;SDS011;46978;50.288;28.624;2023-12-22T02:29:42;7.46;;;3.97;;
60336;SDS011;46978;50.288;28.624;2023-12-22T02:30:52;7.01;;;4.04;;
60336;SDS011;46978;50.288;28.624;2023-12-22T02:31:58;7.22;;;4.16;;
60336;SDS011;46978;50.288;28.624;2023-12-22T02:33:04;7.16;;;4.09;;
60336;SDS011;46978;50.288;28.624;2023-12-22T02:34:08;7.37;;;3.92;;
60336;SDS011;46978;50.288;28.624;2023-12-22T02:35:21;7.26;;;4.14;;
60336;SDS011;46978;50.288;28.624;2023-12-22T02:36:22;6.62;;;3.81;;
60336;SDS011;46978;50.288;28.624;2023-12-22T02:37:25;6.64;;;4.03;;
60336;SDS011;46978;50.288;28.624;2023-12-22T02:38:28;6.76;;;3.99;;
60336;SDS011;46978;50.288;28.624;2023-12-22T02:39:30;7.28;;;4.55;;
60336;SDS011;46978;50.288;28.624;2023-12-22T02:40:34;7.24;;;4.26;;
60336;SDS011;46978;50.288;28.624;2023-12-22T02:41:37;6.90;;;4.19;;
60336;SDS011;46978;50.288;28.624;2023-12-22T02:42:40;6.69;;;3.90;;
60336;SDS011;46978;50.288;28.624;2023-12-22T02:43:42;7.17;;;4.11;;
60336;SDS011;46978;50.288;28.624;2023-12-22T02:44:44;6.92;;;4.13;;
60336;SDS011;46978;50.288;28.624;2023-12-22T02:45:49;7.45;;;4.13;;
60336;SDS011;46978;50.288;28.624;2023-12-22T02:46:52;6.77;;;3.98;;
60336;SDS011;46978;50.288;28.624;2023-12-22T02:47:54;6.75;;;3.99;;
60336;SDS011;46978;50.288;28.624;2023-12-22T02:48:56;7.48;;;4.33;;
60336;SDS011;46978;50.288;28.624;2023-12-22T02:49:58;7.42;;;4.14;;
60336;SDS011;46978;50.288;28.624;2023-12-22T02:51:00;7.28;;;4.09;;
60336;SDS011;46978;50.288;28.624;2023-12-22T02:52:02;8.09;;;4.41;;
60336;SDS011;46978;50.288;28.624;2023-12-22T02:53:05;6.85;;;4.08;;
60336;SDS011;46978;50.288;28.624;2023-12-22T02:56:51;6.82;;;4.22;;
60336;SDS011;46978;50.288;28.624;2023-12-22T02:57:52;8.34;;;4.51;;
60336;SDS011;46978;50.288;28.624;2023-12-22T02:58:54;6.89;;;4.03;;
60336;SDS011;46978;50.288;28.624;2023-12-22T02:59:56;7.34;;;4.15;;
60336;SDS011;46978;50.288;28.624;2023-12-22T03:00:58;8.91;;;3.94;;
60336;SDS011;46978;50.288;28.624;2023-12-22T03:02:00;7.93;;;4.43;;
60336;SDS011;46978;50.288;28.624;2023-12-22T03:03:02;6.75;;;3.95;;
60336;SDS011;46978;50.288;28.624;2023-12-22T03:04:04;7.74;;;4.16;;
60336;SDS011;46978;50.288;28.624;2023-12-22T03:05:06;7.07;;;4.46;;
60336;SDS011;46978;50.288;28.624;2023-12-22T03:06:10;7.39;;;4.37;;
60336;SDS011;46978;50.288;28.624;2023-12-22T03:07:12;7.89;;;4.16;;
60336;SDS011;46978;50.288;28.624;2023-12-22T03:08:14;7.34;;;4.15;;
60336;SDS011;46978;50.288;28.624;2023-12-22T03:09:16;7.54;;;4.39;;
60336;SDS011;46978;50.288;28.624;2023-12-22T03:10:18;7.21;;;4.29;;
60336;SDS011;46978;50.288;28.624;2023-12-22T03:11:20;6.31;;;4.15;;
60336;SDS011;46978;50.288;28.624;2023-12-22T03:12:22;7.75;;;4.36;;
60336;SDS011;46978;50.288;28.624;2023-12-22T03:13:24;8.57;;;4.07;;
60336;SDS011;46978;50.288;28.624;2023-12-22T03:14:25;6.24;;;3.93;;
60336;SDS011;46978;50.288;28.624;2023-12-22T03:15:27;6.67;;;4.26;;
60336;SDS011;46978;50.288;28.624;2023-12-22T03:16:31;7.38;;;4.28;;
60336;SDS011;46978;50.288;28.624;2023-12-22T03:17:33;8.29;;;4.85;;
60336;SDS011;46978;50.288;28.624;2023-12-22T03:18:34;6.84;;;3.96;;
60336;SDS011;46978;50.288;28.624;2023-12-22T03:19:38;7.25;;;4.17;;
60336;SDS011;46978;50.288;28.624;2023-12-22T03:20:41;6.58;;;3.86;;
60336;SDS011;46978;50.288;28.624;2023-12-22T03:21:43;7.29;;;4.25;;
60336;SDS011;46978;50.288;28.624;2023-12-22T03:22:44;8.03;;;4.33;;
60336;SDS011;46978;50.288;28.624;2023-12-22T03:23:46;7.95;;;4.03;;
60336;SDS011;46978;50.288;28.624;2023-12-22T03:24:48;7.20;;;3.85;;
60336;SDS011;46978;50.288;28.624;2023-12-22T03:25:50;7.75;;;4.03;;
60336;SDS011;46978;50.288;28.624;2023-12-22T03:26:52;6.91;;;4.08;;
60336;SDS011;46978;50.288;28.624;2023-12-22T03:27:54;6.91;;;3.95;;
60336;SDS011;46978;50.288;28.624;2023-12-22T03:28:56;7.08;;;4.23;;
60336;SDS011;46978;50.288;28.624;2023-12-22T03:29:58;7.87;;;3.87;;
60336;SDS011;46978;50.288;28.624;2023-12-22T03:31:00;8.03;;;4.21;;
60336;SDS011;46978;50.288;28.624;2023-12-22T03:32:02;6.57;;;3.96;;
60336;SDS011;46978;50.288;28.624;2023-12-22T03:33:04;6.71;;;3.99;;
60336;SDS011;46978;50.288;28.624;2023-12-22T03:34:06;7.18;;;4.09;;
60336;SDS011;46978;50.288;28.624;2023-12-22T03:35:08;7.01;;;4.12;;
60336;SDS011;46978;50.288;28.624;2023-12-22T03:36:11;7.27;;;4.13;;
60336;SDS011;46978;50.288;28.624;2023-12-22T03:37:13;6.80;;;4.44;;
60336;SDS011;46978;50.288;28.624;2023-12-22T03:38:15;6.88;;;3.84;;
60336;SDS011;46978;50.288;28.624;2023-12-22T03:39:16;7.87;;;4.45;;
60336;SDS011;46978;50.288;28.624;2023-12-22T03:40:19;9.09;;;3.96;;
60336;SDS011;46978;50.288;28.624;2023-12-22T03:41:21;8.13;;;3.99;;
60336;SDS011;46978;50.288;28.624;2023-12-22T03:42:23;7.00;;;3.87;;
60336;SDS011;46978;50.288;28.624;2023-12-22T03:43:24;6.81;;;3.81;;
60336;SDS011;46978;50.288;28.624;2023-12-22T03:44:26;5.78;;;3.51;;
60336;SDS011;46978;50.288;28.624;2023-12-22T03:45:28;6.30;;;3.25;;
60336;SDS011;46978;50.288;28.624;2023-12-22T03:46:31;6.54;;;3.52;;
60336;SDS011;46978;50.288;28.624;2023-12-22T03:47:32;6.80;;;3.79;;
60336;SDS011;46978;50.288;28.624;2023-12-22T03:48:34;6.34;;;3.75;;
60336;SDS011;46978;50.288;28.624;2023-12-22T03:49:36;5.48;;;3.50;;
60336;SDS011;46978;50.288;28.624;2023-12-22T03:50:38;5.71;;;3.61;;
60336;SDS011;46978;50.288;28.624;2023-12-22T03:51:40;6.23;;;3.70;;
60336;SDS011;46978;50.288;28.624;2023-12-22T03:52:42;8.03;;;3.69;;
60336;SDS011;46978;50.288;28.624;2023-12-22T03:53:44;5.51;;;3.26;;
60336;SDS011;46978;50.288;28.624;2023-12-22T03:54:46;6.76;;;3.65;;
60336;SDS011;46978;50.288;28.624;2023-12-22T03:55:47;6.81;;;3.43;;
60336;SDS011;46978;50.288;28.624;2023-12-22T03:56:50;6.37;;;3.53;;
60336;SDS011;46978;50.288;28.624;2023-12-22T03:57:52;6.28;;;3.43;;
60336;SDS011;46978;50.288;28.624;2023-12-22T03:58:54;6.08;;;3.68;;
60336;SDS011;46978;50.288;28.624;2023-12-22T03:59:57;5.66;;;3.57;;
60336;SDS011;46978;50.288;28.624;2023-12-22T04:00:58;7.36;;;3.71;;
60336;SDS011;46978;50.288;28.624;2023-12-22T04:02:00;5.76;;;3.37;;
60336;SDS011;46978;50.288;28.624;2023-12-22T04:03:02;5.92;;;3.30;;
60336;SDS011;46978;50.288;28.624;2023-12-22T04:04:05;6.23;;;3.31;;
60336;SDS011;46978;50.288;28.624;2023-12-22T04:05:06;6.00;;;3.21;;
60336;SDS011;46978;50.288;28.624;2023-12-22T04:06:10;6.41;;;3.34;;
60336;SDS011;46978;50.288;28.624;2023-12-22T04:07:12;5.41;;;3.40;;
60336;SDS011;46978;50.288;28.624;2023-12-22T04:08:14;6.95;;;3.43;;
60336;SDS011;46978;50.288;28.624;2023-12-22T04:09:16;6.20;;;3.25;;
60336;SDS011;46978;50.288;28.624;2023-12-22T04:10:18;5.97;;;3.19;;
60336;SDS011;46978;50.288;28.624;2023-12-22T04:11:20;5.55;;;3.21;;
60336;SDS011;46978;50.288;28.624;2023-12-22T04:12:22;7.27;;;3.25;;
60336;SDS011;46978;50.288;28.624;2023-12-22T04:13:24;6.53;;;3.39;;
60336;SDS011;46978;50.288;28.624;2023-12-22T04:14:25;5.75;;;3.11;;
60336;SDS011;46978;50.288;28.624;2023-12-22T04:15:27;6.37;;;3.63;;
60336;SDS011;46978;50.288;28.624;2023-12-22T04:16:29;6.19;;;3.22;;
60336;SDS011;46978;50.288;28.624;2023-12-22T04:17:31;5.01;;;3.12;;
60336;SDS011;46978;50.288;28.624;2023-12-22T04:18:33;5.20;;;3.27;;
60336;SDS011;46978;50.288;28.624;2023-12-22T04:19:35;5.65;;;3.17;;
60336;SDS011;46978;50.288;28.624;2023-12-22T04:20:37;6.00;;;3.46;;
60336;SDS011;46978;50.288;28.624;2023-12-22T04:21:39;5.27;;;3.23;;
60336;SDS011;46978;50.288;28.624;2023-12-22T04:22:41;5.79;;;3.37;;
60336;SDS011;46978;50.288;28.624;2023-12-22T04:23:43;6.35;;;3.44;;
60336;SDS011;46978;50.288;28.624;2023-12-22T04:24:45;6.32;;;3.20;;
60336;SDS011;46978;50.288;28.624;2023-12-22T04:25:47;5.23;;;3.19;;
60336;SDS011;46978;50.288;28.624;2023-12-22T04:26:50;4.85;;;2.94;;
60336;SDS011;46978;50.288;28.624;2023-12-22T04:27:52;5.95;;;3.20;;
60336;SDS011;46978;50.288;28.624;2023-12-22T04:28:54;6.15;;;3.75;;
60336;SDS011;46978;50.288;28.624;2023-12-22T04:29:55;6.77;;;3.25;;
60336;SDS011;46978;50.288;28.624;2023-12-22T04:30:57;6.21;;;3.61;;
60336;SDS011;46978;50.288;28.624;2023-12-22T04:31:59;4.77;;;2.93;;
60336;SDS011;46978;50.288;28.624;2023-12-22T04:33:01;5.18;;;2.93;;
60336;SDS011;46978;50.288;28.624;2023-12-22T04:34:03;5.59;;;3.23;;
60336;SDS011;46978;50.288;28.624;2023-12-22T04:35:05;5.53;;;3.25;;
60336;SDS011;46978;50.288;28.624;2023-12-22T04:36:07;6.67;;;3.21;;
60336;SDS011;46978;50.288;28.624;2023-12-22T04:37:09;6.62;;;4.16;;
60336;SDS011;46978;50.288;28.624;2023-12-22T04:38:11;6.00;;;3.35;;
60336;SDS011;46978;50.288;28.624;2023-12-22T04:39:13;6.15;;;2.95;;
60336;SDS011;46978;50.288;28.624;2023-12-22T04:40:15;7.19;;;3.37;;
60336;SDS011;46978;50.288;28.624;2023-12-22T04:41:17;5.58;;;3.09;;
60336;SDS011;46978;50.288;28.624;2023-12-22T04:42:19;7.31;;;3.52;;
60336;SDS011;46978;50.288;28.624;2023-12-22T04:43:21;6.45;;;3.52;;
60336;SDS011;46978;50.288;28.624;2023-12-22T04:44:22;6.33;;;3.49;;
60336;SDS011;46978;50.288;28.624;2023-12-22T04:45:24;5.66;;;3.47;;
60336;SDS011;46978;50.288;28.624;2023-12-22T04:46:27;6.08;;;3.54;;
60336;SDS011;46978;50.288;28.624;2023-12-22T04:47:29;6.85;;;3.57;;
60336;SDS011;46978;50.288;28.624;2023-12-22T04:48:31;6.47;;;3.47;;
60336;SDS011;46978;50.288;28.624;2023-12-22T04:49:32;6.03;;;3.17;;
60336;SDS011;46978;50.288;28.624;2023-12-22T04:50:35;4.89;;;3.35;;
60336;SDS011;46978;50.288;28.624;2023-12-22T04:51:37;5.71;;;3.39;;
60336;SDS011;46978;50.288;28.624;2023-12-22T04:52:39;6.10;;;3.34;;
60336;SDS011;46978;50.288;28.624;2023-12-22T04:53:41;6.55;;;3.52;;
60336;SDS011;46978;50.288;28.624;2023-12-22T04:54:42;6.74;;;3.59;;
60336;SDS011;46978;50.288;28.624;2023-12-22T04:55:44;5.13;;;3.05;;
60336;SDS011;46978;50.288;28.624;2023-12-22T04:56:47;5.96;;;3.51;;
60336;SDS011;46978;50.288;28.624;2023-12-22T04:57:48;5.93;;;3.47;;
60336;SDS011;46978;50.288;28.624;2023-12-22T04:58:50;6.04;;;3.60;;
60336;SDS011;46978;50.288;28.624;2023-12-22T04:59:52;5.65;;;3.45;;
60336;SDS011;46978;50.288;28.624;2023-12-22T05:00:54;5.22;;;3.23;;
60336;SDS011;46978;50.288;28.624;2023-12-22T05:01:56;6.64;;;3.42;;
60336;SDS011;46978;50.288;28.624;2023-12-22T05:02:59;5.73;;;3.14;;
60336;SDS011;46978;50.288;28.624;2023-12-22T05:04:00;5.57;;;3.37;;
60336;SDS011;46978;50.288;28.624;2023-12-22T05:05:02;5.31;;;3.17;;
60336;SDS011;46978;50.288;28.624;2023-12-22T05:06:05;6.20;;;3.08;;
60336;SDS011;46978;50.288;28.624;2023-12-22T05:07:07;6.01;;;3.21;;
60336;SDS011;46978;50.288;28.624;2023-12-22T05:08:09;6.61;;;3.85;;
60336;SDS011;46978;50.288;28.624;2023-12-22T05:09:11;5.35;;;3.19;;
60336;SDS011;46978;50.288;28.624;2023-12-22T05:10:14;5.81;;;3.42;;
60336;SDS011;46978;50.288;28.624;2023-12-22T05:11:15;5.84;;;3.78;;
60336;SDS011;46978;50.288;28.624;2023-12-22T05:12:17;7.84;;;3.79;;
60336;SDS011;46978;50.288;28.624;2023-12-22T05:13:19;7.14;;;3.72;;
60336;SDS011;46978;50.288;28.624;2023-12-22T05:14:21;5.74;;;3.35;;
60336;SDS011;46978;50.288;28.624;2023-12-22T05:15:23;6.90;;;3.95;;
60336;SDS011;46978;50.288;28.624;2023-12-22T05:16:25;5.95;;;3.77;;
60336;SDS011;46978;50.288;28.624;2023-12-22T05:17:27;6.59;;;3.75;;
60336;SDS011;46978;50.288;28.624;2023-12-22T05:18:29;6.99;;;3.89;;
60336;SDS011;46978;50.288;28.624;2023-12-22T05:19:31;7.04;;;3.74;;
60336;SDS011;46978;50.288;28.624;2023-12-22T05:20:33;6.61;;;3.52;;
60336;SDS011;46978;50.288;28.624;2023-12-22T05:21:35;6.35;;;3.81;;
60336;SDS011;46978;50.288;28.624;2023-12-22T05:22:36;6.55;;;3.79;;
60336;SDS011;46978;50.288;28.624;2023-12-22T05:23:38;6.55;;;3.85;;
60336;SDS011;46978;50.288;28.624;2023-12-22T05:24:40;5.99;;;3.66;;
60336;SDS011;46978;50.288;28.624;2023-12-22T05:25:42;6.54;;;3.97;;
60336;SDS011;46978;50.288;28.624;2023-12-22T05:26:44;6.73;;;4.15;;
60336;SDS011;46978;50.288;28.624;2023-12-22T05:27:46;8.94;;;4.02;;
60336;SDS011;46978;50.288;28.624;2023-12-22T05:28:48;6.65;;;3.79;;
60336;SDS011;46978;50.288;28.624;2023-12-22T05:29:50;7.61;;;3.87;;
60336;SDS011;46978;50.288;28.624;2023-12-22T05:30:52;6.80;;;4.27;;
60336;SDS011;46978;50.288;28.624;2023-12-22T05:31:54;6.25;;;3.73;;
60336;SDS011;46978;50.288;28.624;2023-12-22T05:32:56;6.52;;;3.93;;
60336;SDS011;46978;50.288;28.624;2023-12-22T05:33:58;7.22;;;3.79;;
60336;SDS011;46978;50.288;28.624;2023-12-22T05:34:59;6.48;;;3.79;;
60336;SDS011;46978;50.288;28.624;2023-12-22T05:36:01;7.03;;;3.76;;
60336;SDS011;46978;50.288;28.624;2023-12-22T05:37:03;6.54;;;3.73;;
60336;SDS011;46978;50.288;28.624;2023-12-22T05:38:05;7.55;;;4.28;;
60336;SDS011;46978;50.288;28.624;2023-12-22T05:39:07;5.79;;;3.69;;
60336;SDS011;46978;50.288;28.624;2023-12-22T05:40:10;6.25;;;3.94;;
60336;SDS011;46978;50.288;28.624;2023-12-22T05:41:12;5.98;;;3.66;;
60336;SDS011;46978;50.288;28.624;2023-12-22T05:42:14;6.29;;;3.69;;
60336;SDS011;46978;50.288;28.624;2023-12-22T05:43:15;7.83;;;4.19;;
60336;SDS011;46978;50.288;28.624;2023-12-22T05:44:17;7.49;;;4.10;;
60336;SDS011;46978;50.288;28.624;2023-12-22T05:45:19;7.75;;;3.83;;
60336;SDS011;46978;50.288;28.624;2023-12-22T05:46:23;6.47;;;3.73;;
60336;SDS011;46978;50.288;28.624;2023-12-22T05:47:24;6.89;;;3.72;;
60336;SDS011;46978;50.288;28.624;2023-12-22T05:48:26;7.28;;;4.41;;
60336;SDS011;46978;50.288;28.624;2023-12-22T05:49:28;5.99;;;3.67;;
60336;SDS011;46978;50.288;28.624;2023-12-22T05:50:31;6.42;;;3.90;;
60336;SDS011;46978;50.288;28.624;2023-12-22T05:51:39;7.78;;;4.01;;
60336;SDS011;46978;50.288;28.624;2023-12-22T05:52:43;6.48;;;3.91;;
60336;SDS011;46978;50.288;28.624;2023-12-22T05:53:44;7.32;;;4.41;;
60336;SDS011;46978;50.288;28.624;2023-12-22T05:54:46;7.98;;;4.02;;
60336;SDS011;46978;50.288;28.624;2023-12-22T05:55:48;7.99;;;4.21;;
60336;SDS011;46978;50.288;28.624;2023-12-22T05:56:50;8.91;;;4.75;;
60336;SDS011;46978;50.288;28.624;2023-12-22T05:57:52;7.00;;;3.70;;
60336;SDS011;46978;50.288;28.624;2023-12-22T05:58:54;6.25;;;3.84;;
60336;SDS011;46978;50.288;28.624;2023-12-22T05:59:56;7.14;;;4.03;;
60336;SDS011;46978;50.288;28.624;2023-12-22T06:00:58;6.85;;;4.03;;
60336;SDS011;46978;50.288;28.624;2023-12-22T06:02:00;6.13;;;3.88;;
60336;SDS011;46978;50.288;28.624;2023-12-22T06:03:02;6.23;;;3.93;;
60336;SDS011;46978;50.288;28.624;2023-12-22T06:04:05;8.43;;;3.92;;
60336;SDS011;46978;50.288;28.624;2023-12-22T06:05:07;7.01;;;3.91;;
60336;SDS011;46978;50.288;28.624;2023-12-22T06:06:10;7.87;;;4.25;;
60336;SDS011;46978;50.288;28.624;2023-12-22T06:07:12;8.07;;;4.13;;
60336;SDS011;46978;50.288;28.624;2023-12-22T06:08:14;6.30;;;3.73;;
60336;SDS011;46978;50.288;28.624;2023-12-22T06:09:16;9.17;;;4.64;;
60336;SDS011;46978;50.288;28.624;2023-12-22T06:10:19;6.08;;;3.71;;
60336;SDS011;46978;50.288;28.624;2023-12-22T06:11:21;7.67;;;4.28;;
60336;SDS011;46978;50.288;28.624;2023-12-22T06:12:23;7.77;;;4.38;;